createdAt,value
2019-05-17T00:00:27.372Z,0.00
2019-05-17T00:01:27.044Z,0.00
2019-05-17T00:02:26.589Z,0.00
2019-05-17T00:03:27.019Z,0.00
2019-05-17T00:04:27.006Z,0.00
2019-05-17T00:05:26.469Z,0.00
2019-05-17T00:06:27.554Z,0.00
2019-05-17T00:07:27.253Z,0.00
2019-05-17T00:08:34.328Z,0.00
2019-05-17T00:09:26.877Z,0.00
2019-05-17T00:10:26.468Z,0.00
2019-05-17T00:11:27.366Z,0.00
2019-05-17T00:12:27.143Z,0.00
2019-05-17T00:13:26.875Z,0.00
2019-05-17T00:14:27.153Z,0.00
2019-05-17T00:15:27.325Z,0.00
2019-05-17T00:16:26.828Z,0.00
2019-05-17T00:17:26.745Z,0.00
2019-05-17T00:18:26.458Z,0.00
2019-05-17T00:19:26.301Z,0.00
2019-05-17T00:20:26.647Z,0.00
2019-05-17T00:21:27.487Z,0.00
2019-05-17T00:22:27.024Z,0.00
2019-05-17T00:23:26.903Z,0.00
2019-05-17T00:24:26.533Z,0.00
2019-05-17T00:25:27.355Z,0.00
2019-05-17T00:26:26.977Z,0.00
2019-05-17T00:27:26.488Z,0.00
2019-05-17T00:28:26.916Z,0.00
2019-05-17T00:29:26.446Z,0.00
2019-05-17T00:30:26.612Z,0.00
2019-05-17T00:31:26.323Z,0.00
2019-05-17T00:32:27.482Z,0.00
2019-05-17T00:33:27.238Z,0.00
2019-05-17T00:34:27.065Z,0.00
2019-05-17T00:35:26.769Z,0.00
2019-05-17T00:36:26.933Z,0.00
2019-05-17T00:37:26.473Z,0.00
2019-05-17T00:38:27.449Z,0.00
2019-05-17T00:39:27.158Z,0.00
2019-05-17T00:40:27.018Z,0.00
2019-05-17T00:41:26.924Z,0.00
2019-05-17T00:42:26.466Z,0.00
2019-05-17T00:43:26.221Z,0.00
2019-05-17T00:44:27.203Z,0.00
2019-05-17T00:45:26.741Z,0.00
2019-05-17T00:46:26.649Z,0.00
2019-05-17T00:47:26.625Z,0.00
2019-05-17T00:48:26.485Z,0.00
2019-05-17T00:49:26.440Z,0.00
2019-05-17T00:50:27.550Z,0.00
2019-05-17T00:51:27.254Z,0.00
2019-05-17T00:52:27.167Z,0.00
2019-05-17T00:53:26.887Z,0.00
2019-05-17T00:54:26.931Z,0.00
2019-05-17T00:55:26.826Z,0.00
2019-05-17T00:56:26.602Z,0.00
2019-05-17T00:57:27.185Z,0.00
2019-05-17T00:58:26.295Z,0.00
2019-05-17T00:59:26.282Z,0.00
2019-05-17T01:00:27.632Z,0.00
2019-05-17T01:01:26.988Z,0.00
2019-05-17T01:02:27.027Z,0.00
2019-05-17T01:03:26.987Z,0.00
2019-05-17T01:04:27.462Z,0.00
2019-05-17T01:05:27.332Z,0.00
2019-05-17T01:06:27.367Z,0.00
2019-05-17T01:07:26.896Z,0.00
2019-05-17T01:08:26.549Z,0.00
2019-05-17T01:09:27.165Z,0.00
2019-05-17T01:10:27.097Z,0.00
2019-05-17T01:11:26.964Z,0.00
2019-05-17T01:12:26.990Z,0.00
2019-05-17T01:13:26.774Z,0.00
2019-05-17T01:14:26.547Z,0.00
2019-05-17T01:15:27.173Z,0.00
2019-05-17T01:16:27.100Z,0.00
2019-05-17T01:17:26.949Z,0.00
2019-05-17T01:18:26.880Z,0.00
2019-05-17T01:19:26.881Z,0.00
2019-05-17T01:20:24.877Z,0.00
2019-05-17T01:21:26.296Z,0.00
2019-05-17T01:22:26.281Z,0.00
2019-05-17T01:23:26.967Z,0.00
2019-05-17T01:24:24.801Z,0.00
2019-05-17T01:25:27.142Z,0.00
2019-05-17T01:26:26.703Z,0.00
2019-05-17T01:27:26.381Z,0.00
2019-05-17T01:28:26.773Z,0.00
2019-05-17T01:29:26.709Z,0.00
2019-05-17T01:30:26.646Z,0.00
2019-05-17T01:31:26.583Z,0.00
2019-05-17T01:32:26.619Z,0.00
2019-05-17T01:33:26.439Z,0.00
2019-05-17T01:34:27.074Z,0.00
2019-05-17T01:35:26.605Z,0.00
2019-05-17T01:36:26.373Z,0.00
2019-05-17T01:37:24.703Z,0.00
2019-05-17T01:38:26.783Z,0.00
2019-05-17T01:39:26.722Z,0.00
2019-05-17T01:40:26.476Z,0.00
2019-05-17T01:41:26.550Z,0.00
2019-05-17T01:42:26.506Z,0.00
2019-05-17T01:43:24.607Z,0.00
2019-05-17T01:44:24.612Z,0.00
2019-05-17T01:45:26.814Z,0.00
2019-05-17T01:46:26.531Z,0.00
2019-05-17T01:47:24.549Z,0.00
2019-05-17T01:48:26.917Z,0.00
2019-05-17T01:49:26.940Z,0.00
2019-05-17T01:50:26.521Z,0.00
2019-05-17T01:51:26.308Z,0.00
2019-05-17T01:52:24.486Z,0.00
2019-05-17T01:53:26.885Z,0.00
2019-05-17T01:54:26.760Z,0.00
2019-05-17T01:55:26.422Z,0.00
2019-05-17T01:56:26.270Z,0.00
2019-05-17T01:57:24.432Z,0.00
2019-05-17T01:58:26.590Z,0.00
2019-05-17T01:59:26.614Z,0.00
2019-05-17T02:00:26.553Z,0.00
2019-05-17T02:01:24.389Z,0.00
2019-05-17T02:02:24.433Z,0.00
2019-05-17T02:03:26.623Z,0.00
2019-05-17T02:04:26.659Z,0.00
2019-05-17T02:05:24.349Z,0.00
2019-05-17T02:06:24.360Z,0.00
2019-05-17T02:07:26.617Z,0.00
2019-05-17T02:08:26.305Z,0.00
2019-05-17T02:09:34.873Z,0.00
2019-05-17T02:10:27.155Z,0.00
2019-05-17T02:11:26.758Z,0.00
2019-05-17T02:12:26.612Z,0.00
2019-05-17T02:13:26.646Z,0.00
2019-05-17T02:14:26.636Z,0.00
2019-05-17T02:15:26.642Z,0.00
2019-05-17T02:16:26.614Z,0.00
2019-05-17T02:17:26.459Z,0.00
2019-05-17T02:18:26.436Z,0.00
2019-05-17T02:19:26.432Z,0.00
2019-05-17T02:20:24.223Z,0.00
2019-05-17T02:21:24.171Z,0.00
2019-05-17T02:22:24.164Z,0.00
2019-05-17T02:23:24.177Z,0.00
2019-05-17T02:24:24.152Z,0.00
2019-05-17T02:25:24.126Z,0.00
2019-05-17T02:26:26.554Z,0.00
2019-05-17T02:27:25.393Z,0.00
2019-05-17T02:28:24.093Z,0.00
2019-05-17T02:29:24.087Z,0.00
2019-05-17T02:30:24.097Z,0.00
2019-05-17T02:31:24.763Z,0.00
2019-05-17T02:32:24.244Z,0.00
2019-05-17T02:33:24.039Z,0.00
2019-05-17T02:34:24.028Z,0.00
2019-05-17T02:35:24.016Z,0.00
2019-05-17T02:36:24.028Z,0.00
2019-05-17T02:37:23.995Z,0.00
2019-05-17T02:38:24.039Z,0.00
2019-05-17T02:39:23.974Z,0.00
2019-05-17T02:40:23.968Z,0.00
2019-05-17T02:41:23.954Z,0.00
2019-05-17T02:42:23.966Z,0.00
2019-05-17T02:43:23.934Z,0.00
2019-05-17T02:44:23.961Z,0.00
2019-05-17T02:45:23.908Z,0.00
2019-05-17T02:46:23.927Z,0.00
2019-05-17T02:47:23.894Z,0.00
2019-05-17T02:48:23.886Z,0.00
2019-05-17T02:49:23.868Z,0.00
2019-05-17T02:50:23.892Z,0.00
2019-05-17T02:51:24.065Z,0.00
2019-05-17T02:52:23.831Z,0.00
2019-05-17T02:53:23.822Z,0.00
2019-05-17T02:54:23.834Z,0.00
2019-05-17T02:55:23.804Z,0.00
2019-05-17T02:56:23.833Z,0.00
2019-05-17T02:57:23.779Z,0.00
2019-05-17T02:58:23.775Z,0.00
2019-05-17T02:59:23.760Z,0.00
2019-05-17T03:00:24.227Z,0.00
2019-05-17T03:01:23.732Z,0.00
2019-05-17T03:02:27.689Z,0.00
2019-05-17T03:03:23.934Z,0.00
2019-05-17T03:04:23.788Z,0.00
2019-05-17T03:05:23.690Z,0.00
2019-05-17T03:06:23.703Z,0.00
2019-05-17T03:07:23.672Z,0.00
2019-05-17T03:08:23.847Z,0.00
2019-05-17T03:09:23.646Z,0.00
2019-05-17T03:10:28.779Z,0.00
2019-05-17T03:11:24.623Z,0.00
2019-05-17T03:12:23.830Z,0.00
2019-05-17T03:13:23.633Z,0.00
2019-05-17T03:14:23.628Z,0.00
2019-05-17T03:15:23.667Z,0.00
2019-05-17T03:16:23.918Z,0.00
2019-05-17T03:17:23.559Z,0.00
2019-05-17T03:18:23.568Z,0.00
2019-05-17T03:19:23.762Z,0.00
2019-05-17T03:20:23.557Z,0.00
2019-05-17T03:21:23.516Z,0.00
2019-05-17T03:22:23.513Z,0.00
2019-05-17T03:23:23.747Z,0.00
2019-05-17T03:24:23.504Z,0.00
2019-05-17T03:25:24.022Z,0.00
2019-05-17T03:26:23.509Z,0.00
2019-05-17T03:27:23.539Z,0.00
2019-05-17T03:28:23.883Z,0.00
2019-05-17T03:29:23.439Z,0.00
2019-05-17T03:30:25.831Z,0.00
2019-05-17T03:31:26.520Z,0.00
2019-05-17T03:32:26.502Z,0.00
2019-05-17T03:33:26.662Z,0.00
2019-05-17T03:34:26.361Z,0.00
2019-05-17T03:35:26.717Z,0.00
2019-05-17T03:36:26.038Z,0.00
2019-05-17T03:37:30.247Z,0.00
2019-05-17T03:38:24.377Z,0.00
2019-05-17T03:39:23.316Z,0.00
2019-05-17T03:40:55.442Z,0.00
2019-05-17T03:41:28.928Z,0.00
2019-05-17T03:42:24.301Z,5.62
2019-05-17T03:43:23.284Z,5.62
2019-05-17T03:44:23.310Z,5.62
2019-05-17T03:45:23.254Z,5.62
2019-05-17T03:46:23.480Z,5.62
2019-05-17T03:47:23.258Z,5.62
2019-05-17T03:48:23.247Z,5.62
2019-05-17T03:49:23.222Z,5.62
2019-05-17T03:50:23.232Z,5.62
2019-05-17T03:51:23.543Z,5.62
2019-05-17T03:52:23.179Z,5.62
2019-05-17T03:53:23.181Z,5.62
2019-05-17T03:54:23.178Z,5.62
2019-05-17T03:55:23.622Z,5.62
2019-05-17T03:56:23.165Z,5.62
2019-05-17T03:57:24.086Z,5.62
2019-05-17T03:58:23.599Z,5.62
2019-05-17T03:59:24.248Z,5.62
2019-05-17T04:00:23.435Z,5.62
2019-05-17T04:01:23.426Z,11.25
2019-05-17T04:02:23.290Z,11.25
2019-05-17T04:03:23.377Z,11.25
2019-05-17T04:04:23.150Z,11.25
2019-05-17T04:05:23.033Z,11.25
2019-05-17T04:06:23.831Z,11.25
2019-05-17T04:07:23.790Z,11.25
2019-05-17T04:08:23.181Z,11.25
2019-05-17T04:09:22.988Z,11.25
2019-05-17T04:10:23.093Z,11.25
2019-05-17T04:11:31.373Z,11.25
2019-05-17T04:12:23.956Z,11.25
2019-05-17T04:13:23.614Z,11.25
2019-05-17T04:14:22.978Z,11.25
2019-05-17T04:15:23.932Z,11.25
2019-05-17T04:16:23.807Z,11.25
2019-05-17T04:17:23.021Z,16.88
2019-05-17T04:18:23.661Z,16.88
2019-05-17T04:19:23.149Z,11.25
2019-05-17T04:20:22.920Z,11.25
2019-05-17T04:21:23.660Z,11.25
2019-05-17T04:22:23.859Z,11.25
2019-05-17T04:23:23.436Z,16.88
2019-05-17T04:24:23.216Z,16.88
2019-05-17T04:25:23.471Z,16.88
2019-05-17T04:26:23.037Z,16.88
2019-05-17T04:27:23.141Z,16.88
2019-05-17T04:28:23.269Z,22.50
2019-05-17T04:29:22.916Z,22.50
2019-05-17T04:30:23.478Z,22.50
2019-05-17T04:31:22.984Z,22.50
2019-05-17T04:32:23.471Z,28.12
2019-05-17T04:33:23.500Z,28.12
2019-05-17T04:34:22.713Z,28.12
2019-05-17T04:35:23.428Z,28.12
2019-05-17T04:36:22.786Z,33.75
2019-05-17T04:37:23.120Z,33.75
2019-05-17T04:38:23.557Z,39.38
2019-05-17T04:39:22.794Z,39.38
2019-05-17T04:40:23.248Z,39.38
2019-05-17T04:41:39.526Z,45.00
2019-05-17T04:42:23.626Z,45.00
2019-05-17T04:43:23.221Z,50.62
2019-05-17T04:44:23.247Z,50.62
2019-05-17T04:45:23.292Z,56.25
2019-05-17T04:46:23.628Z,56.25
2019-05-17T04:47:23.156Z,61.88
2019-05-17T04:48:23.359Z,61.88
2019-05-17T04:49:24.264Z,61.88
2019-05-17T04:50:23.235Z,61.88
2019-05-17T04:51:23.301Z,67.50
2019-05-17T04:52:22.934Z,67.50
2019-05-17T04:53:23.358Z,67.50
2019-05-17T04:54:22.816Z,73.12
2019-05-17T04:55:23.196Z,73.12
2019-05-17T04:56:22.890Z,78.75
2019-05-17T04:57:23.258Z,78.75
2019-05-17T04:58:23.299Z,73.12
2019-05-17T04:59:24.307Z,73.12
2019-05-17T05:00:22.434Z,73.12
2019-05-17T05:01:23.590Z,73.12
2019-05-17T05:02:23.678Z,78.75
2019-05-17T05:03:23.160Z,78.75
2019-05-17T05:04:22.716Z,78.75
2019-05-17T05:05:23.004Z,78.75
2019-05-17T05:06:23.377Z,78.75
2019-05-17T05:07:22.681Z,78.75
2019-05-17T05:08:22.685Z,78.75
2019-05-17T05:09:23.087Z,78.75
2019-05-17T05:10:22.695Z,73.12
2019-05-17T05:11:23.343Z,73.12
2019-05-17T05:12:22.816Z,73.12
2019-05-17T05:13:22.882Z,73.12
2019-05-17T05:14:23.282Z,67.50
2019-05-17T05:15:22.633Z,67.50
2019-05-17T05:16:22.623Z,67.50
2019-05-17T05:17:22.323Z,73.12
2019-05-17T05:18:22.376Z,73.12
2019-05-17T05:19:22.447Z,73.12
2019-05-17T05:20:22.273Z,78.75
2019-05-17T05:21:23.010Z,78.75
2019-05-17T05:22:22.580Z,78.75
2019-05-17T05:23:23.876Z,84.38
2019-05-17T05:24:22.366Z,84.38
2019-05-17T05:25:22.163Z,84.38
2019-05-17T05:26:22.362Z,84.38
2019-05-17T05:27:22.341Z,84.38
2019-05-17T05:28:22.611Z,84.38
2019-05-17T05:29:22.111Z,84.38
2019-05-17T05:30:22.512Z,90.00
2019-05-17T05:31:22.792Z,84.38
2019-05-17T05:32:22.152Z,90.00
2019-05-17T05:33:22.320Z,90.00
2019-05-17T05:34:22.053Z,90.00
2019-05-17T05:35:22.454Z,90.00
2019-05-17T05:36:22.171Z,90.00
2019-05-17T05:37:23.157Z,95.62
2019-05-17T05:38:22.191Z,95.62
2019-05-17T05:39:22.869Z,95.62
2019-05-17T05:40:22.000Z,95.62
2019-05-17T05:41:22.570Z,95.62
2019-05-17T05:42:22.140Z,101.25
2019-05-17T05:43:22.559Z,101.25
2019-05-17T05:44:22.235Z,101.25
2019-05-17T05:45:22.515Z,101.25
2019-05-17T05:46:22.417Z,101.25
2019-05-17T05:47:22.251Z,95.62
2019-05-17T05:48:21.905Z,90.00
2019-05-17T05:49:21.894Z,90.00
2019-05-17T05:50:21.978Z,90.00
2019-05-17T05:51:21.894Z,90.00
2019-05-17T05:52:21.996Z,90.00
2019-05-17T05:53:22.005Z,90.00
2019-05-17T05:54:22.538Z,95.62
2019-05-17T05:55:23.466Z,95.62
2019-05-17T05:56:22.169Z,101.25
2019-05-17T05:57:22.058Z,101.25
2019-05-17T05:58:24.024Z,106.88
2019-05-17T05:59:22.451Z,106.88
2019-05-17T06:00:22.196Z,112.50
2019-05-17T06:01:22.065Z,112.50
2019-05-17T06:02:21.946Z,118.12
2019-05-17T06:03:22.525Z,118.12
2019-05-17T06:04:22.335Z,123.75
2019-05-17T06:05:21.989Z,129.38
2019-05-17T06:06:21.737Z,135.00
2019-05-17T06:07:21.800Z,135.00
2019-05-17T06:08:22.679Z,140.62
2019-05-17T06:09:22.289Z,151.88
2019-05-17T06:10:21.897Z,157.50
2019-05-17T06:11:21.744Z,168.75
2019-05-17T06:12:27.689Z,168.75
2019-05-17T06:13:22.677Z,168.75
2019-05-17T06:14:21.739Z,163.12
2019-05-17T06:15:21.999Z,163.12
2019-05-17T06:16:22.751Z,157.50
2019-05-17T06:17:21.740Z,151.88
2019-05-17T06:18:22.656Z,151.88
2019-05-17T06:19:22.387Z,146.25
2019-05-17T06:20:22.441Z,146.25
2019-05-17T06:21:22.653Z,140.62
2019-05-17T06:22:22.416Z,140.62
2019-05-17T06:23:23.421Z,146.25
2019-05-17T06:24:22.520Z,146.25
2019-05-17T06:25:23.405Z,146.25
2019-05-17T06:26:23.753Z,151.88
2019-05-17T06:27:21.657Z,151.88
2019-05-17T06:28:22.351Z,157.50
2019-05-17T06:29:22.146Z,157.50
2019-05-17T06:30:22.072Z,157.50
2019-05-17T06:31:23.940Z,157.50
2019-05-17T06:32:22.822Z,151.88
2019-05-17T06:33:30.539Z,151.88
2019-05-17T06:34:22.466Z,151.88
2019-05-17T06:35:21.847Z,151.88
2019-05-17T06:36:21.769Z,151.88
2019-05-17T06:37:22.369Z,151.88
2019-05-17T06:38:22.447Z,151.88
2019-05-17T06:39:22.409Z,151.88
2019-05-17T06:40:21.718Z,157.50
2019-05-17T06:41:21.627Z,157.50
2019-05-17T06:42:25.887Z,157.50
2019-05-17T06:43:22.330Z,157.50
2019-05-17T06:44:21.665Z,163.12
2019-05-17T06:45:22.054Z,163.12
2019-05-17T06:46:21.961Z,168.75
2019-05-17T06:47:22.545Z,163.12
2019-05-17T06:48:22.470Z,163.12
2019-05-17T06:49:22.450Z,163.12
2019-05-17T06:50:23.492Z,151.88
2019-05-17T06:51:22.066Z,157.50
2019-05-17T06:52:22.580Z,163.12
2019-05-17T06:53:21.933Z,163.12
2019-05-17T06:54:21.665Z,168.75
2019-05-17T06:55:21.256Z,174.38
2019-05-17T06:56:22.956Z,191.25
2019-05-17T06:57:23.321Z,191.25
2019-05-17T06:58:22.280Z,202.50
2019-05-17T06:59:21.125Z,202.50
2019-05-17T07:00:23.909Z,208.12
2019-05-17T07:01:21.147Z,208.12
2019-05-17T07:02:21.092Z,213.75
2019-05-17T07:03:21.079Z,208.12
2019-05-17T07:04:21.068Z,208.12
2019-05-17T07:05:21.061Z,219.38
2019-05-17T07:06:21.537Z,219.38
2019-05-17T07:07:21.083Z,225.00
2019-05-17T07:08:21.029Z,241.88
2019-05-17T07:09:21.017Z,247.50
2019-05-17T07:10:21.083Z,253.12
2019-05-17T07:11:21.179Z,241.88
2019-05-17T07:12:21.028Z,236.25
2019-05-17T07:13:21.042Z,247.50
2019-05-17T07:14:20.970Z,241.88
2019-05-17T07:15:20.949Z,202.50
2019-05-17T07:16:21.003Z,208.12
2019-05-17T07:17:20.944Z,208.12
2019-05-17T07:18:20.918Z,241.88
2019-05-17T07:19:20.942Z,264.38
2019-05-17T07:20:20.895Z,253.12
2019-05-17T07:21:20.899Z,247.50
2019-05-17T07:22:21.328Z,236.25
2019-05-17T07:23:20.867Z,236.25
2019-05-17T07:24:20.855Z,230.62
2019-05-17T07:25:20.907Z,225.00
2019-05-17T07:26:20.830Z,219.38
2019-05-17T07:27:20.852Z,213.75
2019-05-17T07:28:20.809Z,225.00
2019-05-17T07:29:20.805Z,225.00
2019-05-17T07:30:20.789Z,225.00
2019-05-17T07:31:23.088Z,241.88
2019-05-17T07:32:20.768Z,236.25
2019-05-17T07:33:20.773Z,241.88
2019-05-17T07:34:20.746Z,230.62
2019-05-17T07:35:20.737Z,247.50
2019-05-17T07:36:20.746Z,247.50
2019-05-17T07:37:20.747Z,264.38
2019-05-17T07:38:20.711Z,253.12
2019-05-17T07:39:20.724Z,264.38
2019-05-17T07:40:20.682Z,264.38
2019-05-17T07:41:20.674Z,270.00
2019-05-17T07:42:20.658Z,258.75
2019-05-17T07:43:20.996Z,247.50
2019-05-17T07:44:20.639Z,247.50
2019-05-17T07:45:20.643Z,241.88
2019-05-17T07:46:20.794Z,236.25
2019-05-17T07:47:20.602Z,230.62
2019-05-17T07:48:20.598Z,225.00
2019-05-17T07:49:20.619Z,213.75
2019-05-17T07:50:20.574Z,208.12
2019-05-17T07:51:20.577Z,202.50
2019-05-17T07:52:20.689Z,202.50
2019-05-17T07:53:20.540Z,213.75
2019-05-17T07:54:20.536Z,219.38
2019-05-17T07:55:22.976Z,230.62
2019-05-17T07:56:20.508Z,230.62
2019-05-17T07:57:20.757Z,225.00
2019-05-17T07:58:21.458Z,208.12
2019-05-17T07:59:20.478Z,225.00
2019-05-17T08:00:20.476Z,219.38
2019-05-17T08:01:20.626Z,208.12
2019-05-17T08:02:20.483Z,225.00
2019-05-17T08:03:21.279Z,236.25
2019-05-17T08:04:20.535Z,219.38
2019-05-17T08:05:21.436Z,213.75
2019-05-17T08:06:20.405Z,225.00
2019-05-17T08:07:20.443Z,230.62
2019-05-17T08:08:20.937Z,247.50
2019-05-17T08:09:20.542Z,264.38
2019-05-17T08:10:20.532Z,258.75
2019-05-17T08:11:20.344Z,270.00
2019-05-17T08:12:20.333Z,298.12
2019-05-17T08:13:27.313Z,303.75
2019-05-17T08:14:30.083Z,303.75
2019-05-17T08:15:21.329Z,309.38
2019-05-17T08:16:20.299Z,315.00
2019-05-17T08:17:20.276Z,315.00
2019-05-17T08:18:20.488Z,309.38
2019-05-17T08:19:20.522Z,331.88
2019-05-17T08:20:20.457Z,326.25
2019-05-17T08:21:20.250Z,309.38
2019-05-17T08:22:20.332Z,303.75
2019-05-17T08:23:20.392Z,292.50
2019-05-17T08:24:20.206Z,264.38
2019-05-17T08:25:20.477Z,275.62
2019-05-17T08:26:20.192Z,286.88
2019-05-17T08:27:20.259Z,298.12
2019-05-17T08:28:21.573Z,292.50
2019-05-17T08:29:20.383Z,247.50
2019-05-17T08:30:20.778Z,281.25
2019-05-17T08:31:20.342Z,275.62
2019-05-17T08:32:20.811Z,270.00
2019-05-17T08:33:20.112Z,337.50
2019-05-17T08:34:20.094Z,348.75
2019-05-17T08:35:20.084Z,303.75
2019-05-17T08:36:20.271Z,309.38
2019-05-17T08:37:20.523Z,281.25
2019-05-17T08:38:20.054Z,309.38
2019-05-17T08:39:20.041Z,292.50
2019-05-17T08:40:20.250Z,292.50
2019-05-17T08:41:20.858Z,326.25
2019-05-17T08:42:20.540Z,337.50
2019-05-17T08:43:21.374Z,320.62
2019-05-17T08:44:19.983Z,286.88
2019-05-17T08:45:20.640Z,298.12
2019-05-17T08:46:19.991Z,337.50
2019-05-17T08:47:20.918Z,365.62
2019-05-17T08:48:20.674Z,376.88
2019-05-17T08:49:20.276Z,382.50
2019-05-17T08:50:20.216Z,405.00
2019-05-17T08:51:19.909Z,410.62
2019-05-17T08:52:20.157Z,427.50
2019-05-17T08:53:20.052Z,421.88
2019-05-17T08:54:19.879Z,421.88
2019-05-17T08:55:20.510Z,433.12
2019-05-17T08:56:20.530Z,444.38
2019-05-17T08:57:20.636Z,489.38
2019-05-17T08:58:21.563Z,523.12
2019-05-17T08:59:20.188Z,556.88
2019-05-17T09:00:20.749Z,573.75
2019-05-17T09:01:19.837Z,585.00
2019-05-17T09:02:20.017Z,596.25
2019-05-17T09:03:19.817Z,607.50
2019-05-17T09:04:20.168Z,607.50
2019-05-17T09:05:21.208Z,579.38
2019-05-17T09:06:19.946Z,562.50
2019-05-17T09:07:20.336Z,556.88
2019-05-17T09:08:20.492Z,528.75
2019-05-17T09:09:20.451Z,500.62
2019-05-17T09:10:20.753Z,495.00
2019-05-17T09:11:19.820Z,489.38
2019-05-17T09:12:20.625Z,466.88
2019-05-17T09:13:19.784Z,495.00
2019-05-17T09:14:21.461Z,517.50
2019-05-17T09:15:20.321Z,551.25
2019-05-17T09:16:19.780Z,545.62
2019-05-17T09:17:19.700Z,511.88
2019-05-17T09:18:20.595Z,472.50
2019-05-17T09:19:19.636Z,489.38
2019-05-17T09:20:20.403Z,511.88
2019-05-17T09:21:21.868Z,556.88
2019-05-17T09:22:19.885Z,596.25
2019-05-17T09:23:19.871Z,601.88
2019-05-17T09:24:19.557Z,669.38
2019-05-17T09:25:21.937Z,765.00
2019-05-17T09:26:20.088Z,871.88
2019-05-17T09:27:19.914Z,871.88
2019-05-17T09:28:20.463Z,888.75
2019-05-17T09:29:20.093Z,911.25
2019-05-17T09:30:20.332Z,956.25
2019-05-17T09:31:20.429Z,1035.00
2019-05-17T09:32:20.097Z,1051.88
2019-05-17T09:33:19.457Z,1057.50
2019-05-17T09:34:20.244Z,1085.62
2019-05-17T09:35:20.842Z,1141.88
2019-05-17T09:36:20.519Z,1091.25
2019-05-17T09:37:22.372Z,1035.00
2019-05-17T09:38:20.355Z,1102.50
2019-05-17T09:39:20.051Z,1136.25
2019-05-17T09:40:20.069Z,1113.75
2019-05-17T09:41:20.016Z,1029.38
2019-05-17T09:42:20.939Z,973.12
2019-05-17T09:43:20.477Z,922.50
2019-05-17T09:44:20.673Z,860.62
2019-05-17T09:45:20.124Z,832.50
2019-05-17T09:46:19.767Z,826.88
2019-05-17T09:47:20.666Z,849.38
2019-05-17T09:48:19.692Z,798.75
2019-05-17T09:49:19.383Z,787.50
2019-05-17T09:50:20.031Z,770.62
2019-05-17T09:51:19.635Z,810.00
2019-05-17T09:52:19.978Z,883.12
2019-05-17T09:53:20.178Z,866.25
2019-05-17T09:54:19.522Z,787.50
2019-05-17T09:55:19.728Z,736.88
2019-05-17T09:56:20.634Z,742.50
2019-05-17T09:57:20.465Z,759.38
2019-05-17T09:58:21.607Z,781.88
2019-05-17T09:59:20.401Z,765.00
2019-05-17T10:00:20.872Z,686.25
2019-05-17T10:01:19.652Z,596.25
2019-05-17T10:02:20.409Z,590.62
2019-05-17T10:03:23.713Z,624.38
2019-05-17T10:04:20.111Z,720.00
2019-05-17T10:05:20.219Z,742.50
2019-05-17T10:06:20.075Z,793.12
2019-05-17T10:07:20.815Z,753.75
2019-05-17T10:08:19.068Z,736.88
2019-05-17T10:09:19.592Z,652.50
2019-05-17T10:10:20.226Z,585.00
2019-05-17T10:11:20.338Z,585.00
2019-05-17T10:12:20.279Z,590.62
2019-05-17T10:13:20.226Z,607.50
2019-05-17T10:14:27.673Z,630.00
2019-05-17T10:15:20.723Z,663.75
2019-05-17T10:16:20.227Z,703.12
2019-05-17T10:17:21.034Z,736.88
2019-05-17T10:18:20.003Z,742.50
2019-05-17T10:19:21.862Z,765.00
2019-05-17T10:20:19.971Z,810.00
2019-05-17T10:21:19.832Z,793.12
2019-05-17T10:22:20.019Z,725.62
2019-05-17T10:23:19.694Z,731.25
2019-05-17T10:24:20.063Z,742.50
2019-05-17T10:25:20.183Z,736.88
2019-05-17T10:26:19.691Z,731.25
2019-05-17T10:27:19.622Z,720.00
2019-05-17T10:28:20.573Z,714.38
2019-05-17T10:29:18.826Z,714.38
2019-05-17T10:30:20.971Z,748.12
2019-05-17T10:31:19.735Z,781.88
2019-05-17T10:32:20.462Z,793.12
2019-05-17T10:33:20.018Z,826.88
2019-05-17T10:34:20.316Z,866.25
2019-05-17T10:35:19.919Z,922.50
2019-05-17T10:36:20.244Z,973.12
2019-05-17T10:37:20.368Z,984.38
2019-05-17T10:38:19.477Z,973.12
2019-05-17T10:39:19.389Z,905.62
2019-05-17T10:40:20.769Z,821.25
2019-05-17T10:41:19.894Z,736.88
2019-05-17T10:42:21.022Z,703.12
2019-05-17T10:43:20.399Z,658.12
2019-05-17T10:44:19.862Z,613.12
2019-05-17T10:45:19.858Z,590.62
2019-05-17T10:46:20.580Z,635.62
2019-05-17T10:47:19.544Z,798.75
2019-05-17T10:48:21.179Z,956.25
2019-05-17T10:49:20.226Z,1029.38
2019-05-17T10:50:20.588Z,1046.25
2019-05-17T10:51:20.305Z,1051.88
2019-05-17T10:52:20.282Z,1006.88
2019-05-17T10:53:20.369Z,933.75
2019-05-17T10:54:20.659Z,883.12
2019-05-17T10:55:19.999Z,860.62
2019-05-17T10:56:19.911Z,860.62
2019-05-17T10:57:19.446Z,871.88
2019-05-17T10:58:21.048Z,871.88
2019-05-17T10:59:20.299Z,871.88
2019-05-17T11:00:19.733Z,883.12
2019-05-17T11:01:20.028Z,888.75
2019-05-17T11:02:19.641Z,871.88
2019-05-17T11:03:20.329Z,860.62
2019-05-17T11:04:19.757Z,838.12
2019-05-17T11:05:20.149Z,826.88
2019-05-17T11:06:19.708Z,815.62
2019-05-17T11:07:19.919Z,793.12
2019-05-17T11:08:19.771Z,753.75
2019-05-17T11:09:20.565Z,714.38
2019-05-17T11:10:19.480Z,697.50
2019-05-17T11:11:20.055Z,680.62
2019-05-17T11:12:18.367Z,669.38
2019-05-17T11:13:18.399Z,680.62
2019-05-17T11:14:18.363Z,708.75
2019-05-17T11:15:18.330Z,720.00
2019-05-17T11:16:18.331Z,725.62
2019-05-17T11:17:18.309Z,725.62
2019-05-17T11:18:18.300Z,720.00
2019-05-17T11:19:18.329Z,691.88
2019-05-17T11:20:18.288Z,686.25
2019-05-17T11:21:18.276Z,663.75
2019-05-17T11:22:18.333Z,646.88
2019-05-17T11:23:18.315Z,646.88
2019-05-17T11:24:18.249Z,652.50
2019-05-17T11:25:18.287Z,680.62
2019-05-17T11:26:18.225Z,742.50
2019-05-17T11:27:18.229Z,770.62
2019-05-17T11:28:18.217Z,798.75
2019-05-17T11:29:18.189Z,821.25
2019-05-17T11:30:18.195Z,838.12
2019-05-17T11:31:18.264Z,843.75
2019-05-17T11:32:18.149Z,838.12
2019-05-17T11:33:18.144Z,826.88
2019-05-17T11:34:18.136Z,821.25
2019-05-17T11:35:18.116Z,793.12
2019-05-17T11:36:18.171Z,776.25
2019-05-17T11:37:18.131Z,770.62
2019-05-17T11:38:18.099Z,781.88
2019-05-17T11:39:18.075Z,798.75
2019-05-17T11:40:18.068Z,815.62
2019-05-17T11:41:21.595Z,838.12
2019-05-17T11:42:18.100Z,871.88
2019-05-17T11:43:18.085Z,922.50
2019-05-17T11:44:18.026Z,961.88
2019-05-17T11:45:27.235Z,1001.25
2019-05-17T11:46:19.012Z,1029.38
2019-05-17T11:47:18.000Z,1029.38
2019-05-17T11:48:17.999Z,1051.88
2019-05-17T11:49:18.126Z,1063.12
2019-05-17T11:50:18.056Z,1080.00
2019-05-17T11:51:17.986Z,1125.00
2019-05-17T11:52:17.946Z,1170.00
2019-05-17T11:53:17.935Z,1215.00
2019-05-17T11:54:17.914Z,1254.38
2019-05-17T11:55:17.963Z,1305.00
2019-05-17T11:56:17.888Z,1310.62
2019-05-17T11:57:18.849Z,1316.25
2019-05-17T11:58:17.876Z,1310.62
2019-05-17T11:59:17.862Z,1299.38
2019-05-17T12:00:17.848Z,1276.88
2019-05-17T12:01:17.886Z,1248.75
2019-05-17T12:02:17.847Z,1209.38
2019-05-17T12:03:17.828Z,1175.62
2019-05-17T12:04:17.854Z,1147.50
2019-05-17T12:05:17.814Z,1130.62
2019-05-17T12:06:17.781Z,1119.38
2019-05-17T12:07:17.834Z,1080.00
2019-05-17T12:08:17.793Z,1085.62
2019-05-17T12:09:17.750Z,1091.25
2019-05-17T12:10:17.735Z,1080.00
2019-05-17T12:11:17.848Z,1057.50
2019-05-17T12:12:17.716Z,1023.75
2019-05-17T12:13:17.732Z,978.75
2019-05-17T12:14:17.713Z,950.62
2019-05-17T12:15:17.684Z,905.62
2019-05-17T12:16:17.685Z,883.12
2019-05-17T12:17:17.693Z,883.12
2019-05-17T12:18:17.676Z,905.62
2019-05-17T12:19:17.828Z,928.12
2019-05-17T12:20:17.638Z,961.88
2019-05-17T12:21:17.623Z,990.00
2019-05-17T12:22:17.603Z,1029.38
2019-05-17T12:23:17.599Z,1063.12
2019-05-17T12:24:17.589Z,1108.12
2019-05-17T12:25:17.616Z,1153.12
2019-05-17T12:26:17.600Z,1192.50
2019-05-17T12:27:17.621Z,1226.25
2019-05-17T12:28:17.545Z,1260.00
2019-05-17T12:29:17.539Z,1288.12
2019-05-17T12:30:17.555Z,1293.75
2019-05-17T12:31:17.573Z,1276.88
2019-05-17T12:32:17.507Z,1237.50
2019-05-17T12:33:17.508Z,1203.75
2019-05-17T12:34:17.559Z,1170.00
2019-05-17T12:35:17.508Z,1192.50
2019-05-17T12:36:17.471Z,1215.00
2019-05-17T12:37:17.485Z,1260.00
2019-05-17T12:38:17.435Z,1305.00
2019-05-17T12:39:17.447Z,1248.75
2019-05-17T12:40:17.410Z,1209.38
2019-05-17T12:41:17.404Z,1170.00
2019-05-17T12:42:17.424Z,1153.12
2019-05-17T12:43:17.460Z,1119.38
2019-05-17T12:44:17.370Z,1096.88